Share

Creighton, NE

KNEEWING7 Elev 1929 ft | 42.24 °N, 98.24 °W | Change Station

Current weather conditions updated 3 minutes ago

Clear
Clear
51.8 °F
Feels Like 51.8 °F
N
4.0
Wind Variable Wind from NE
Gusts 7.0 mph
Sunrise 6:42 AM
Sunset 8:19 PM
Moon Waning Gibbous

Today is forecast to be Much Warmer than yesterday. Thunderstorms likely early tonight.

Pressure 30.00 in
Visibility 10.0 miles
Clouds Clear
Dew Point 33 °F
Humidity 48%
Rainfall -999.00 in
Snow Depth Not available.
UV 0 out of 16
Pollen 11.00 out of 12
Air Quality Not available.
Flu Activity Sporadic
METAR KONL 200735Z AUTO 01006KT 10SM CLR 08/00 A3000 RMK AO2 T00811003

More Conditions Fewer Conditions

Pressure 30.00 in
Visibility 10.0 miles
Clouds Clear
Dew Point 33 °F
Humidity 48%
Rainfall -999.00 in
Snow Depth Not available.
UV 0 out of 16
Pollen 11.00 out of 12
Air Quality Not available.
Flu Activity Sporadic
METAR KONL 200735Z AUTO 01006KT 10SM CLR 08/00 A3000 RMK AO2 T00811003

More Conditions Fewer Conditions

10-Day Weather Forecast

Almanac

Astronomy

Apr. 20, 2014 Rise Set
Actual Time 6:42 AM CDT 8:19 PM CDT
Civil Twilight 6:12 AM CDT 8:48 PM CDT
Nautical Twilight 5:37 AM CDT 9:24 PM CDT
Astronomical Twilight 4:58 AM CDT 10:03 PM CDT
Moon 1:02 AM CDT 11:02 AM CDT
Length of Visible Light 14h 35m
Length of Day
13h 36m
Tomorrow will be 2m 40s longer.
Waning Gibbous, 72% of the Moon is Illuminated
Today
Waning Gibbous
Apr 22
Last Quarter
Apr 29
New
May 6
First Quarter
May 14
Full

Today's Extremes

State Highs State Lows

Community

  • Sunny day at the coast-Cape Arago Lighthouse
    Sunny day at the coast-Cape Arago Lighthouse
  • Cherry Blossoms
    Cherry Blossoms
  • White-Crowned Sparrow
    White-Crowned Sparrow
  • New Day
    New Day
  • Happy Easter!
    Happy Easter!

WunderPhotos

Upload Photos

1,703,084 photos uploaded!

WunderBlogs® & News

Nearby

Snow Depth

Station Depth Elevation
No new snow has been reported.

Coastal Water Temperatures

Place Temperature
No Stations Reporting

Earthquake Activity

City Distance Mag. Time & Date
No recent earthquake activity has been reported nearby.
Minimum magnitude displayed is 2.5.

Nearby Weather Stations

Station Location Temp. Dew Point Humidity Wind Precip. Elev Updated Type
Ewing, NE 51.8 °F 33 °F 48% NE  at  4.0 mph 0.00 in / hr 1929 ft 2:55 AM CDT Normal
Neligh, NE 55.9 °F 37 °F 49% NE  at  2.0 mph 0.00 in / hr 1750 ft 2:55 AM CDT Normal

Show More Stations Show Fewer Stations

What do you think?

We're not finished. Please let us know what you like, what you don't like, and what you are still missing.